Time;durP1;ratioP1;P1;durP2;ratioP2;P2;SDS_P1;SDS_P2;PMS_P1;PMS_P2;Temp;Humidity;BMP_temperature;BMP_pressure;BME280_temperature;BME280_humidity;BME280_pressure;Samples;Min_cycle;Max_cycle;Signal;HPM_P1;HPM_P2
2023/02/12 00:01:52;;;;;;;44.50;29.17;;;;;;;;;;5026513;28;20571;-57
2023/02/12 00:04:18;;;;;;;47.08;30.50;;;;;;;;;;5026138;28;20036;-55
2023/02/12 00:06:44;;;;;;;43.22;28.70;;;;;;;;;;5026440;28;20569;-54
2023/02/12 00:09:10;;;;;;;43.83;28.65;;;;;;;;;;5026670;28;20033;-53
2023/02/12 00:11:36;;;;;;;42.30;27.15;;;;;;;;;;5026669;28;20033;-57
2023/02/12 00:14:04;;;;;;;44.03;28.85;;;;;;;;;;5025595;28;20029;-56
2023/02/12 00:16:30;;;;;;;43.08;27.45;;;;;;;;;;5026682;28;20026;-56
2023/02/12 00:18:57;;;;;;;43.58;27.95;;;;;;;;;;5026820;28;20061;-53
2023/02/12 00:21:23;;;;;;;48.90;28.83;;;;;;;;;;5026902;28;20029;-56
2023/02/12 00:23:49;;;;;;;44.65;28.25;;;;;;;;;;5025797;28;20034;-58
2023/02/12 00:26:16;;;;;;;45.30;29.25;;;;;;;;;;5026220;28;20045;-55
2023/02/12 00:28:42;;;;;;;41.08;27.85;;;;;;;;;;5028091;28;20033;-55
2023/02/12 00:31:10;;;;;;;44.63;29.10;;;;;;;;;;5013145;28;20567;-57
2023/02/12 00:33:36;;;;;;;43.63;28.10;;;;;;;;;;5029898;28;20033;-56
2023/02/12 00:36:02;;;;;;;50.50;30.77;;;;;;;;;;5030114;28;20540;-56
2023/02/12 00:38:28;;;;;;;45.30;30.10;;;;;;;;;;5075965;22;20792;-65
2023/02/12 00:40:54;;;;;;;45.13;29.15;;;;;;;;;;5071973;28;20079;-64
2023/02/12 00:43:20;;;;;;;45.08;28.17;;;;;;;;;;5053860;28;20047;-64
2023/02/12 00:45:47;;;;;;;44.65;29.33;;;;;;;;;;5072457;28;20102;-64
2023/02/12 00:48:13;;;;;;;46.72;30.10;;;;;;;;;;5054480;28;20020;-65
2023/02/12 00:50:42;;;;;;;43.90;28.30;;;;;;;;;;5072377;28;20028;-64
2023/02/12 00:53:08;;;;;;;48.55;30.25;;;;;;;;;;5071928;28;20025;-63
2023/02/12 00:55:34;;;;;;;43.00;28.45;;;;;;;;;;5054883;28;20146;-65
2023/02/12 00:58:01;;;;;;;44.30;29.17;;;;;;;;;;5073144;28;20118;-65
2023/02/12 01:00:27;;;;;;;45.03;29.25;;;;;;;;;;5066946;28;20089;-64
2023/02/12 01:02:53;;;;;;;39.85;25.98;;;;;;;;;;5072561;28;20074;-65
2023/02/12 01:05:19;;;;;;;40.17;26.15;;;;;;;;;;5072047;28;20476;-64
2023/02/12 01:07:52;;;;;;;41.42;27.42;;;;;;;;;;5072593;28;20130;-66
2023/02/12 01:10:19;;;;;;;48.58;29.92;;;;;;;;;;5054655;28;20035;-66
2023/02/12 01:12:45;;;;;;;41.92;28.33;;;;;;;;;;5054632;28;20040;-67
2023/02/12 01:15:12;;;;;;;48.20;27.38;;;;;;;;;;5071883;28;20024;-66
2023/02/12 01:17:38;;;;;;;41.85;27.38;;;;;;;;;;5054545;28;20032;-65
2023/02/12 01:20:06;;;;;;;39.47;27.60;;;;;;;;;;5072167;28;20036;-66
2023/02/12 01:22:33;;;;;;;42.22;26.27;;;;;;;;;;5072490;28;20051;-65
2023/02/12 01:24:59;;;;;;;45.40;28.88;;;;;;;;;;5071884;28;20060;-64
2023/02/12 01:27:25;;;;;;;44.95;28.10;;;;;;;;;;5072183;28;20024;-65
2023/02/12 01:29:51;;;;;;;48.08;28.70;;;;;;;;;;5054413;28;20025;-65
2023/02/12 01:32:17;;;;;;;45.55;28.13;;;;;;;;;;5072399;28;20024;-65
2023/02/12 01:34:43;;;;;;;38.45;26.63;;;;;;;;;;5071724;28;20025;-65
2023/02/12 01:37:09;;;;;;;41.47;28.58;;;;;;;;;;5054054;28;20033;-65
2023/02/12 01:39:35;;;;;;;41.58;26.95;;;;;;;;;;5054189;28;20476;-65
2023/02/12 01:42:01;;;;;;;41.40;27.52;;;;;;;;;;5054156;28;20052;-65
2023/02/12 01:44:28;;;;;;;45.20;28.35;;;;;;;;;;5071310;28;20035;-65
2023/02/12 01:46:56;;;;;;;42.22;28.60;;;;;;;;;;5072012;28;20024;-65
2023/02/12 01:49:21;;;;;;;40.53;27.65;;;;;;;;;;5072055;28;20416;-64
2023/02/12 01:51:50;;;;;;;40.33;26.73;;;;;;;;;;5053950;28;20054;-66
2023/02/12 01:54:18;;;;;;;48.75;28.98;;;;;;;;;;5053139;28;20488;-66
2023/02/12 01:56:44;;;;;;;44.53;27.50;;;;;;;;;;5053777;28;20064;-65
2023/02/12 01:59:11;;;;;;;40.40;27.13;;;;;;;;;;5071851;28;20096;-66
2023/02/12 02:01:37;;;;;;;45.92;27.73;;;;;;;;;;5053891;28;20024;-66
2023/02/12 02:04:09;;;;;;;40.63;27.20;;;;;;;;;;5070943;28;20095;-64
2023/02/12 02:06:38;;;;;;;44.42;27.13;;;;;;;;;;5071784;28;20423;-65
2023/02/12 02:09:04;;;;;;;43.20;26.75;;;;;;;;;;5071666;28;20099;-65
2023/02/12 02:14:31;;;;;;;45.30;28.10;;;;;;;;;;5070791;28;20209;-65
2023/02/12 02:17:06;;;;;;;46.90;27.52;;;;;;;;;;5071322;28;20028;-65
2023/02/12 02:19:45;;;;;;;40.70;27.15;;;;;;;;;;5071466;28;20065;-65
2023/02/12 02:22:17;;;;;;;43.00;26.77;;;;;;;;;;5053570;28;20024;-66
2023/02/12 02:24:50;;;;;;;42.90;27.98;;;;;;;;;;5052588;28;20128;-64
2023/02/12 02:27:26;;;;;;;38.85;25.48;;;;;;;;;;5071117;28;20029;-65
2023/02/12 02:30:11;;;;;;;39.85;26.75;;;;;;;;;;5071342;28;20024;-65
2023/02/12 02:32:41;;;;;;;42.63;26.25;;;;;;;;;;5071152;28;20024;-63
2023/02/12 02:35:12;;;;;;;37.97;26.08;;;;;;;;;;5070353;28;20107;-65
2023/02/12 02:37:49;;;;;;;40.97;26.00;;;;;;;;;;5070907;28;20025;-65
2023/02/12 02:40:15;;;;;;;41.08;27.98;;;;;;;;;;5070983;28;20024;-65
2023/02/12 02:42:50;;;;;;;39.15;26.17;;;;;;;;;;5053071;28;20050;-66
2023/02/12 02:45:20;;;;;;;43.13;28.33;;;;;;;;;;5070366;28;20062;-66
2023/02/12 02:47:52;;;;;;;50.67;28.98;;;;;;;;;;5052798;28;20028;-65
2023/02/12 02:50:20;;;;;;;43.25;25.05;;;;;;;;;;5052811;28;20032;-66
2023/02/12 02:52:52;;;;;;;41.05;26.05;;;;;;;;;;5070402;28;20134;-65
2023/02/12 02:55:19;;;;;;;41.13;25.38;;;;;;;;;;5070034;28;20021;-66
2023/02/12 02:57:56;;;;;;;41.88;26.85;;;;;;;;;;5070364;28;20036;-65
2023/02/12 03:00:34;;;;;;;43.77;26.97;;;;;;;;;;5070661;28;20029;-66
2023/02/12 03:03:05;;;;;;;42.85;27.42;;;;;;;;;;5070540;28;20020;-66
2023/02/12 03:05:33;;;;;;;43.03;26.65;;;;;;;;;;5070438;28;20032;-66
2023/02/12 03:08:02;;;;;;;40.25;27.38;;;;;;;;;;5070342;28;20024;-65
2023/02/12 03:10:34;;;;;;;39.38;25.50;;;;;;;;;;5070511;28;20031;-66
2023/02/12 03:13:10;;;;;;;37.15;26.27;;;;;;;;;;5070177;28;20643;-65
2023/02/12 03:15:36;;;;;;;42.65;27.35;;;;;;;;;;5052117;28;20029;-65
2023/02/12 03:18:05;;;;;;;39.65;26.25;;;;;;;;;;5052143;28;20495;-66
2023/02/12 03:20:31;;;;;;;;;;;;;;;;;;5070495;28;20031;-65
2023/02/12 03:23:19;;;;;;;41.40;27.60;;;;;;;;;;5070438;28;20291;-65
2023/02/12 03:25:53;;;;;;;36.35;25.67;;;;;;;;;;5070377;28;20028;-66
2023/02/12 03:28:21;;;;;;;42.88;26.88;;;;;;;;;;5070245;28;20434;-66
2023/02/12 03:31:02;;;;;;;41.40;27.65;;;;;;;;;;5070109;28;20029;-66
2023/02/12 03:33:41;;;;;;;44.65;27.25;;;;;;;;;;5069504;28;20040;-65
2023/02/12 03:36:10;;;;;;;40.13;26.73;;;;;;;;;;5069953;28;20072;-66
2023/02/12 03:38:38;;;;;;;39.55;26.98;;;;;;;;;;5070285;28;20056;-65
2023/02/12 03:41:09;;;;;;;39.88;26.98;;;;;;;;;;5052002;28;20488;-66
2023/02/12 03:43:49;;;;;;;40.10;26.45;;;;;;;;;;5069173;28;20378;-65
2023/02/12 03:46:35;;;;;;;43.05;27.02;;;;;;;;;;5069915;28;20048;-65
2023/02/12 03:49:07;;;;;;;46.45;26.88;;;;;;;;;;5051629;28;20035;-64
2023/02/12 03:51:38;;;;;;;49.22;27.52;;;;;;;;;;5069813;28;20035;-65
2023/02/12 03:54:05;;;;;;;42.60;28.17;;;;;;;;;;5069286;28;20082;-65
2023/02/12 03:56:34;;;;;;;43.33;28.00;;;;;;;;;;5069933;28;20037;-65
2023/02/12 03:59:00;;;;;;;38.35;26.42;;;;;;;;;;5069701;28;20259;-65
2023/02/12 04:01:26;;;;;;;39.45;26.77;;;;;;;;;;5069526;28;20095;-66
2023/02/12 04:03:52;;;;;;;42.55;26.70;;;;;;;;;;5067947;28;20024;-65
2023/02/12 04:06:26;;;;;;;43.22;28.65;;;;;;;;;;5069418;28;20483;-65
2023/02/12 04:08:53;;;;;;;44.35;29.20;;;;;;;;;;5069545;28;20030;-65
2023/02/12 04:11:28;;;;;;;42.95;28.60;;;;;;;;;;5051547;28;20021;-65
2023/02/12 04:14:03;;;;;;;40.95;27.13;;;;;;;;;;5068775;28;20107;-65
2023/02/12 04:16:32;;;;;;;40.20;25.40;;;;;;;;;;5069460;28;20020;-64
2023/02/12 04:18:58;;;;;;;45.55;28.20;;;;;;;;;;5069409;28;20032;-64
2023/02/12 04:21:43;;;;;;;40.25;26.58;;;;;;;;;;5069603;28;20683;-64
2023/02/12 04:24:39;;;;;;;38.55;26.52;;;;;;;;;;5077370;28;20028;-65
2023/02/12 04:27:14;;;;;;;38.70;26.75;;;;;;;;;;5051621;28;20037;-64
2023/02/12 04:29:43;;;;;;;41.80;27.10;;;;;;;;;;5069590;28;20029;-65
2023/02/12 04:32:14;;;;;;;39.50;26.63;;;;;;;;;;5069541;28;20477;-65
2023/02/12 04:34:46;;;;;;;42.08;27.77;;;;;;;;;;5068573;28;20039;-64
2023/02/12 04:37:16;;;;;;;42.17;28.00;;;;;;;;;;5069069;28;20090;-64
2023/02/12 04:39:43;;;;;;;39.70;28.55;;;;;;;;;;5069517;28;20020;-65
2023/02/12 04:42:10;;;;;;;40.72;28.52;;;;;;;;;;5069141;28;20065;-65
2023/02/12 04:44:40;;;;;;;41.22;27.17;;;;;;;;;;5050517;28;20503;-63
2023/02/12 04:47:06;;;;;;;43.60;27.45;;;;;;;;;;5069271;28;20489;-64
2023/02/12 04:49:32;;;;;;;41.33;26.95;;;;;;;;;;5051037;28;20056;-65
2023/02/12 04:51:58;;;;;;;43.33;25.98;;;;;;;;;;5069171;28;20096;-64
2023/02/12 04:54:24;;;;;;;40.53;27.65;;;;;;;;;;5068442;28;20079;-65
2023/02/12 04:56:50;;;;;;;39.88;27.08;;;;;;;;;;5068913;28;20115;-66
2023/02/12 04:59:16;;;;;;;40.75;27.52;;;;;;;;;;5051191;28;20039;-66
2023/02/12 05:01:43;;;;;;;43.25;28.02;;;;;;;;;;5069261;28;20020;-65
2023/02/12 05:04:10;;;;;;;42.75;27.15;;;;;;;;;;5075638;28;20025;-65
2023/02/12 05:06:38;;;;;;;39.25;27.27;;;;;;;;;;5075691;28;20029;-64
2023/02/12 05:09:05;;;;;;;40.35;26.67;;;;;;;;;;5070180;28;20442;-65
2023/02/12 05:11:31;;;;;;;41.78;27.25;;;;;;;;;;5069098;28;20025;-66
2023/02/12 05:13:57;;;;;;;40.15;27.58;;;;;;;;;;5068559;28;20120;-66
2023/02/12 05:16:23;;;;;;;40.03;27.17;;;;;;;;;;5072629;28;20100;-66
2023/02/12 05:18:49;;;;;;;44.85;28.42;;;;;;;;;;5072512;28;20021;-66
2023/02/12 05:21:15;;;;;;;46.08;29.63;;;;;;;;;;5072650;28;20531;-67
2023/02/12 05:23:41;;;;;;;42.83;29.17;;;;;;;;;;5071870;28;20023;-64
2023/02/12 05:26:10;;;;;;;41.90;26.60;;;;;;;;;;5072730;28;20057;-65
2023/02/12 05:28:36;;;;;;;41.53;30.05;;;;;;;;;;5054562;28;20029;-65
2023/02/12 05:31:03;;;;;;;43.25;27.83;;;;;;;;;;5072441;28;20508;-66
2023/02/12 05:33:29;;;;;;;40.85;27.75;;;;;;;;;;5071681;28;20114;-63
2023/02/12 05:35:55;;;;;;;40.42;27.65;;;;;;;;;;5072167;28;20052;-66
2023/02/12 05:38:21;;;;;;;38.97;26.83;;;;;;;;;;5072207;28;20377;-65
2023/02/12 05:40:47;;;;;;;46.95;28.13;;;;;;;;;;5072243;28;20115;-65
2023/02/12 05:43:13;;;;;;;43.72;28.15;;;;;;;;;;5071534;28;20365;-65
2023/02/12 05:45:41;;;;;;;44.53;29.13;;;;;;;;;;5072172;28;20464;-65
2023/02/12 05:48:07;;;;;;;44.38;28.00;;;;;;;;;;5071993;28;20017;-65
2023/02/12 05:50:33;;;;;;;39.67;28.05;;;;;;;;;;5072047;28;20024;-65
2023/02/12 05:53:02;;;;;;;41.50;27.95;;;;;;;;;;5071656;28;20044;-65
2023/02/12 05:55:28;;;;;;;38.13;26.27;;;;;;;;;;5071763;28;20120;-65
2023/02/12 05:57:54;;;;;;;39.65;27.25;;;;;;;;;;5054180;28;20029;-67
2023/02/12 06:00:21;;;;;;;39.03;27.75;;;;;;;;;;5072114;28;20446;-65
2023/02/12 06:02:47;;;;;;;45.55;28.23;;;;;;;;;;5071958;28;20031;-66
2023/02/12 06:05:13;;;;;;;41.05;27.65;;;;;;;;;;5071102;28;20126;-66
2023/02/12 06:07:39;;;;;;;43.97;26.85;;;;;;;;;;5071663;28;20099;-64
2023/02/12 06:10:05;;;;;;;42.33;27.65;;;;;;;;;;5071849;28;20095;-65
2023/02/12 06:12:31;;;;;;;43.63;27.45;;;;;;;;;;5053723;28;20108;-65
2023/02/12 06:14:57;;;;;;;41.03;28.67;;;;;;;;;;5071107;28;20036;-64
2023/02/12 06:17:23;;;;;;;47.92;29.98;;;;;;;;;;5071393;28;20504;-65
2023/02/12 06:19:49;;;;;;;47.17;29.30;;;;;;;;;;5053525;28;20020;-65
2023/02/12 06:22:15;;;;;;;42.55;26.75;;;;;;;;;;5053652;28;20111;-65
2023/02/12 06:24:41;;;;;;;46.75;29.77;;;;;;;;;;5053199;28;20103;-65
2023/02/12 06:27:07;;;;;;;43.33;29.77;;;;;;;;;;5052603;28;20032;-66
2023/02/12 06:29:33;;;;;;;44.65;29.35;;;;;;;;;;5071535;28;20076;-65
2023/02/12 06:31:59;;;;;;;45.70;30.60;;;;;;;;;;5071656;28;20082;-64
2023/02/12 06:34:25;;;;;;;44.38;29.88;;;;;;;;;;5070734;28;20109;-64
2023/02/12 06:36:51;;;;;;;43.63;28.80;;;;;;;;;;5071134;28;20025;-65
2023/02/12 06:39:17;;;;;;;46.17;29.05;;;;;;;;;;5071126;22;20419;-59
2023/02/12 06:41:44;;;;;;;49.42;30.17;;;;;;;;;;5052200;28;20029;-56
2023/02/12 06:44:10;;;;;;;44.30;30.35;;;;;;;;;;5033920;28;20448;-55
2023/02/12 06:46:39;;;;;;;47.88;27.95;;;;;;;;;;5052109;28;20074;-59
2023/02/12 06:49:05;;;;;;;45.90;30.48;;;;;;;;;;5051969;28;20044;-58
2023/02/12 06:51:31;;;;;;;40.72;28.13;;;;;;;;;;5051942;28;20032;-57
2023/02/12 06:53:57;;;;;;;46.03;28.00;;;;;;;;;;5033385;28;20397;-56
2023/02/12 06:56:24;;;;;;;48.63;29.27;;;;;;;;;;5034068;28;20451;-57
2023/02/12 06:58:55;;;;;;;43.00;29.13;;;;;;;;;;5050689;28;20459;-54
2023/02/12 07:01:22;;;;;;;51.78;31.15;;;;;;;;;;5042421;28;20064;-58
2023/02/12 07:03:49;;;;;;;41.42;28.50;;;;;;;;;;5039485;28;20059;-56
2023/02/12 07:06:16;;;;;;;44.70;28.20;;;;;;;;;;5043792;28;20032;-58
2023/02/12 07:08:42;;;;;;;43.38;28.92;;;;;;;;;;5034069;28;20025;-58
2023/02/12 07:11:08;;;;;;;45.65;29.90;;;;;;;;;;5036607;28;20144;-58
2023/02/12 07:13:34;;;;;;;43.85;30.15;;;;;;;;;;5042340;28;20411;-57
2023/02/12 07:16:04;;;;;;;46.13;29.20;;;;;;;;;;5037636;28;20053;-56
2023/02/12 07:18:30;;;;;;;55.65;30.45;;;;;;;;;;5031132;28;20029;-58
2023/02/12 07:20:56;;;;;;;44.45;29.23;;;;;;;;;;5031265;28;20021;-56
2023/02/12 07:23:22;;;;;;;46.38;30.40;;;;;;;;;;5030690;28;20021;-55
2023/02/12 07:25:58;;;;;;;45.55;30.08;;;;;;;;;;5031384;28;20025;-57
2023/02/12 07:28:24;;;;;;;39.50;26.75;;;;;;;;;;5031391;28;20389;-54
2023/02/12 07:30:50;;;;;;;49.92;30.55;;;;;;;;;;5015296;28;20541;-58
2023/02/12 07:33:16;;;;;;;44.03;28.48;;;;;;;;;;5042489;28;20025;-56
2023/02/12 07:35:42;;;;;;;45.50;30.63;;;;;;;;;;5033729;28;20018;-56
2023/02/12 07:38:08;;;;;;;49.35;30.80;;;;;;;;;;5031660;28;20042;-54
2023/02/12 07:40:34;;;;;;;46.28;29.00;;;;;;;;;;5031920;28;20068;-56
2023/02/12 07:43:00;;;;;;;46.38;30.80;;;;;;;;;;5044673;28;20023;-56
2023/02/12 07:45:26;;;;;;;45.38;30.33;;;;;;;;;;5035253;28;20520;-58
2023/02/12 07:47:52;;;;;;;49.80;29.83;;;;;;;;;;5031090;28;20140;-55
2023/02/12 07:50:18;;;;;;;46.70;29.70;;;;;;;;;;5030990;28;20026;-58
2023/02/12 07:52:44;;;;;;;43.47;28.90;;;;;;;;;;5030860;28;20028;-58
2023/02/12 07:55:10;;;;;;;48.58;28.55;;;;;;;;;;5030316;28;20029;-56
2023/02/12 07:57:36;;;;;;;48.97;30.05;;;;;;;;;;5030845;28;20021;-57
2023/02/12 08:00:04;;;;;;;49.88;31.50;;;;;;;;;;5030746;28;20555;-58
2023/02/12 08:02:30;;;;;;;51.53;30.23;;;;;;;;;;5030920;28;20034;-55
2023/02/12 08:04:57;;;;;;;46.38;28.58;;;;;;;;;;5029841;28;20088;-58
2023/02/12 08:07:23;;;;;;;44.30;29.60;;;;;;;;;;5030762;28;20389;-56
2023/02/12 08:09:49;;;;;;;46.88;29.08;;;;;;;;;;5030636;28;20025;-57
2023/02/12 08:12:16;;;;;;;46.65;28.75;;;;;;;;;;5013017;28;20041;-55
2023/02/12 08:14:42;;;;;;;47.55;31.10;;;;;;;;;;5029894;28;20083;-56
2023/02/12 08:17:08;;;;;;;47.90;31.40;;;;;;;;;;5030624;28;20021;-59
2023/02/12 08:19:34;;;;;;;47.05;29.50;;;;;;;;;;5030530;28;20386;-55
2023/02/12 08:22:05;;;;;;;43.53;28.77;;;;;;;;;;5030740;28;20029;-57
2023/02/12 08:24:31;;;;;;;43.25;29.00;;;;;;;;;;5029909;28;20056;-59
2023/02/12 08:26:57;;;;;;;47.38;29.30;;;;;;;;;;5030490;28;20086;-59
2023/02/12 08:29:25;;;;;;;43.90;29.05;;;;;;;;;;5030457;28;20061;-59
2023/02/12 08:31:54;;;;;;;47.03;27.75;;;;;;;;;;5030645;28;20026;-59
2023/02/12 08:34:21;;;;;;;44.70;29.00;;;;;;;;;;5049478;28;20029;-59
2023/02/12 08:36:48;;;;;;;43.22;28.08;;;;;;;;;;5032398;28;20025;-56
2023/02/12 08:39:14;;;;;;;46.83;28.27;;;;;;;;;;5050098;28;20056;-55
2023/02/12 08:41:43;;;;;;;41.08;27.80;;;;;;;;;;5050445;28;20017;-58
2023/02/12 08:44:10;;;;;;;45.25;28.95;;;;;;;;;;5049695;28;20541;-58
2023/02/12 08:46:37;;;;;;;42.85;28.05;;;;;;;;;;5050290;28;20500;-57
2023/02/12 08:49:05;;;;;;;45.03;28.70;;;;;;;;;;5050569;28;20478;-58
2023/02/12 08:51:33;;;;;;;44.75;29.30;;;;;;;;;;5054108;28;20037;-65
2023/02/12 08:54:00;;;;;;;41.70;28.33;;;;;;;;;;5053695;28;20372;-52
2023/02/12 08:56:27;;;;;;;44.88;29.15;;;;;;;;;;5054097;28;20283;-53
2023/02/12 08:58:53;;;;;;;43.05;29.20;;;;;;;;;;5036152;28;20444;-52
2023/02/12 09:01:20;;;;;;;42.92;27.33;;;;;;;;;;5053909;28;20481;-53
2023/02/12 09:03:47;;;;;;;43.85;27.65;;;;;;;;;;5053458;28;20546;-49
2023/02/12 09:06:14;;;;;;;41.25;27.33;;;;;;;;;;5054320;28;20516;-49
2023/02/12 09:08:40;;;;;;;41.50;25.70;;;;;;;;;;5054212;28;20029;-52
2023/02/12 09:11:07;;;;;;;45.22;26.05;;;;;;;;;;5053917;28;20032;-53
2023/02/12 09:13:34;;;;;;;39.40;25.35;;;;;;;;;;5052822;28;20063;-53
2023/02/12 09:16:01;;;;;;;38.65;24.05;;;;;;;;;;5053762;28;20029;-53
2023/02/12 09:18:30;;;;;;;42.05;24.90;;;;;;;;;;5035536;28;20029;-52
2023/02/12 09:21:00;;;;;;;38.40;25.88;;;;;;;;;;5045904;28;20110;-52
2023/02/12 09:23:26;;;;;;;38.05;25.17;;;;;;;;;;5036243;28;20025;-54
2023/02/12 09:25:52;;;;;;;39.05;24.33;;;;;;;;;;5017339;28;20044;-53
2023/02/12 09:28:18;;;;;;;44.15;27.33;;;;;;;;;;5033585;28;20025;-52
2023/02/12 09:30:44;;;;;;;37.00;24.77;;;;;;;;;;5033458;28;20021;-63
2023/02/12 09:33:10;;;;;;;34.67;23.05;;;;;;;;;;5014804;28;20032;-56
2023/02/12 09:35:38;;;;;;;41.00;23.83;;;;;;;;;;5033275;28;20079;-57
2023/02/12 09:38:04;;;;;;;35.40;24.60;;;;;;;;;;5033103;28;20034;-52
2023/02/12 09:40:30;;;;;;;39.17;23.35;;;;;;;;;;5033259;28;20034;-55
2023/02/12 09:42:56;;;;;;;35.40;22.67;;;;;;;;;;5033138;28;20026;-58
2023/02/12 09:45:25;;;;;;;36.13;23.13;;;;;;;;;;5032848;28;20020;-59
2023/02/12 09:47:54;;;;;;;35.72;23.20;;;;;;;;;;5032198;28;20490;-57
2023/02/12 09:50:39;;;;;;;34.63;23.98;;;;;;;;;;5033291;28;20439;-61
2023/02/12 09:53:05;;;;;;;35.08;22.45;;;;;;;;;;5014836;28;20083;-55
2023/02/12 09:55:33;;;;;;;37.75;22.35;;;;;;;;;;5015117;28;20076;-58
2023/02/12 09:58:04;;;;;;;35.45;23.48;;;;;;;;;;5032873;28;20060;-59
2023/02/12 10:00:31;;;;;;;34.35;22.02;;;;;;;;;;5047046;28;20024;-59
2023/02/12 10:03:00;;;;;;;33.08;22.10;;;;;;;;;;5052475;28;20035;-59
2023/02/12 10:05:28;;;;;;;31.20;21.63;;;;;;;;;;5052281;28;20104;-61
2023/02/12 10:08:13;;;;;;;33.13;22.10;;;;;;;;;;5052612;28;20064;-61
2023/02/12 10:10:39;;;;;;;33.30;22.65;;;;;;;;;;5052734;28;20086;-58
2023/02/12 10:13:10;;;;;;;32.28;20.38;;;;;;;;;;5052040;28;20481;-58
2023/02/12 10:15:45;;;;;;;31.33;19.60;;;;;;;;;;5052518;28;20033;-55
2023/02/12 10:18:46;;;;;;;30.95;20.27;;;;;;;;;;5052644;28;20063;-57
2023/02/12 10:21:15;;;;;;;29.58;18.60;;;;;;;;;;4952066;28;20428;-57
2023/02/12 10:23:56;;;;;;;29.40;17.70;;;;;;;;;;5033516;28;20029;-62
2023/02/12 10:26:24;;;;;;;28.85;16.83;;;;;;;;;;5052413;28;20021;-56
2023/02/12 10:28:50;;;;;;;25.75;16.40;;;;;;;;;;5052294;28;20029;-57
2023/02/12 10:31:31;;;;;;;27.75;16.83;;;;;;;;;;5052072;28;20055;-58
2023/02/12 10:33:57;;;;;;;26.25;15.10;;;;;;;;;;5051383;28;20037;-54
2023/02/12 10:36:23;;;;;;;26.13;14.68;;;;;;;;;;5052182;28;20029;-57
2023/02/12 10:38:52;;;;;;;23.70;14.13;;;;;;;;;;5052027;28;20036;-58
2023/02/12 10:41:18;;;;;;;25.58;14.80;;;;;;;;;;5052317;28;20040;-59
2023/02/12 10:43:44;;;;;;;27.23;16.08;;;;;;;;;;5051663;28;20021;-60
2023/02/12 10:46:15;;;;;;;29.30;15.82;;;;;;;;;;5052354;28;20524;-61
2023/02/12 10:48:43;;;;;;;25.55;14.38;;;;;;;;;;5051999;28;20381;-60
2023/02/12 10:51:09;;;;;;;23.02;12.90;;;;;;;;;;5052494;28;20101;-59
2023/02/12 10:53:38;;;;;;;28.27;13.40;;;;;;;;;;5051201;28;20036;-57
2023/02/12 10:56:13;;;;;;;26.20;14.10;;;;;;;;;;5051798;28;20405;-59
2023/02/12 10:58:50;;;;;;;23.95;13.20;;;;;;;;;;5051937;28;20055;-60
2023/02/12 11:01:21;;;;;;;21.13;12.80;;;;;;;;;;5051890;28;20550;-58
2023/02/12 11:03:48;;;;;;;28.35;15.93;;;;;;;;;;5050997;28;20044;-58
2023/02/12 11:06:14;;;;;;;23.65;12.25;;;;;;;;;;5034121;28;20116;-59
2023/02/12 11:08:40;;;;;;;22.75;11.65;;;;;;;;;;5051998;28;20083;-59
2023/02/12 11:11:06;;;;;;;23.02;12.98;;;;;;;;;;5051712;28;20021;-57
2023/02/12 11:13:32;;;;;;;24.65;12.35;;;;;;;;;;5050121;28;20029;-57
2023/02/12 11:16:00;;;;;;;22.20;13.38;;;;;;;;;;5051436;28;20060;-57
2023/02/12 11:18:28;;;;;;;22.33;13.50;;;;;;;;;;5051882;28;20087;-61
2023/02/12 11:21:05;;;;;;;23.63;12.97;;;;;;;;;;5051283;28;20430;-58
2023/02/12 11:23:38;;;;;;;23.10;13.30;;;;;;;;;;5048183;28;20362;-57
2023/02/12 11:26:06;;;;;;;24.70;12.48;;;;;;;;;;5045762;28;20051;-56
2023/02/12 11:28:34;;;;;;;21.42;12.63;;;;;;;;;;5045837;28;20053;-55
2023/02/12 11:31:20;;;;;;;22.55;14.05;;;;;;;;;;5040935;28;20469;-54
2023/02/12 11:33:47;;;;;;;27.02;13.18;;;;;;;;;;5030884;28;20070;-54
2023/02/12 11:36:13;;;;;;;25.00;11.98;;;;;;;;;;5046991;28;20025;-54
2023/02/12 11:38:46;;;;;;;20.65;12.20;;;;;;;;;;5016288;28;20191;-56
2023/02/12 11:41:18;;;;;;;20.40;11.52;;;;;;;;;;5051123;28;20043;-53
2023/02/12 11:43:44;;;;;;;22.35;11.82;;;;;;;;;;5050186;28;20604;-58
2023/02/12 11:46:17;;;;;;;22.88;12.93;;;;;;;;;;5050822;28;20021;-55
2023/02/12 11:48:46;;;;;;;21.83;12.57;;;;;;;;;;5050725;28;20531;-53
2023/02/12 11:51:18;;;;;;;22.88;13.65;;;;;;;;;;5051053;28;20512;-55
2023/02/12 11:53:47;;;;;;;23.52;13.70;;;;;;;;;;5050361;28;20063;-55
2023/02/12 11:56:13;;;;;;;24.58;13.63;;;;;;;;;;5033072;28;20021;-59
2023/02/12 11:58:39;;;;;;;22.05;13.18;;;;;;;;;;5051094;28;20145;-54
2023/02/12 12:01:15;;;;;;;23.80;13.30;;;;;;;;;;5050796;28;20108;-55
2023/02/12 12:03:45;;;;;;;24.88;12.23;;;;;;;;;;5049870;28;20032;-58
2023/02/12 12:06:20;;;;;;;22.10;12.18;;;;;;;;;;5050815;28;20017;-58
2023/02/12 12:09:04;;;;;;;35.17;13.98;;;;;;;;;;5050836;28;20112;-55
2023/02/12 12:11:43;;;;;;;26.23;12.85;;;;;;;;;;5050832;28;20028;-56
2023/02/12 12:14:15;;;;;;;21.02;11.63;;;;;;;;;;5050079;28;20021;-58
2023/02/12 12:20:04;;;;;;;29.50;12.50;;;;;;;;;;5051299;28;20072;-58
2023/02/12 12:22:36;;;;;;;22.05;11.80;;;;;;;;;;5050623;28;20036;-57
2023/02/12 12:25:21;;;;;;;20.15;11.85;;;;;;;;;;5051759;28;20365;-57
2023/02/12 12:28:02;;;;;;;21.67;12.45;;;;;;;;;;5054430;28;20064;-57
2023/02/12 12:30:40;;;;;;;23.27;12.15;;;;;;;;;;5054585;28;20500;-58
2023/02/12 12:33:12;;;;;;;25.48;12.27;;;;;;;;;;5054016;28;20032;-59
2023/02/12 12:35:43;;;;;;;20.70;11.52;;;;;;;;;;5054656;28;20029;-58
2023/02/12 12:38:18;;;;;;;23.17;12.30;;;;;;;;;;5055715;28;20040;-57
2023/02/12 12:41:04;;;;;;;25.23;13.98;;;;;;;;;;5036693;28;20020;-60
2023/02/12 12:43:37;;;;;;;22.70;12.38;;;;;;;;;;5035602;28;20072;-55
2023/02/12 12:46:12;;;;;;;29.25;13.65;;;;;;;;;;5054252;28;20033;-59
2023/02/12 12:48:38;;;;;;;29.25;13.05;;;;;;;;;;5036424;28;20025;-55
2023/02/12 12:51:23;;;;;;;20.83;12.40;;;;;;;;;;5054286;28;20025;-58
2023/02/12 12:53:49;;;;;;;22.38;12.07;;;;;;;;;;5053627;28;20029;-56
2023/02/12 12:56:27;;;;;;;27.35;13.30;;;;;;;;;;5036152;28;20212;-58
2023/02/12 12:59:08;;;;;;;23.48;12.70;;;;;;;;;;5053971;28;20225;-58
2023/02/12 13:01:34;;;;;;;22.48;12.88;;;;;;;;;;5032495;28;20384;-56
2023/02/12 13:04:08;;;;;;;23.05;12.63;;;;;;;;;;5044838;28;20017;-57
2023/02/12 13:06:46;;;;;;;24.70;13.85;;;;;;;;;;5027768;28;20025;-57
2023/02/12 13:09:31;;;;;;;23.08;13.70;;;;;;;;;;5047311;28;20143;-54
2023/02/12 13:12:00;;;;;;;20.25;11.15;;;;;;;;;;5045514;28;20017;-56
2023/02/12 13:14:41;;;;;;;24.70;12.02;;;;;;;;;;5043036;28;20030;-57
2023/02/12 13:17:10;;;;;;;17.10;9.95;;;;;;;;;;5044500;28;20025;-54
2023/02/12 13:19:55;;;;;;;21.45;10.68;;;;;;;;;;5045177;28;20112;-57
2023/02/12 13:22:27;;;;;;;20.58;10.68;;;;;;;;;;5045688;28;20021;-55
2023/02/12 13:25:05;;;;;;;26.20;11.60;;;;;;;;;;5035183;28;20087;-56
2023/02/12 13:27:34;;;;;;;18.35;10.00;;;;;;;;;;5053330;28;20053;-55
2023/02/12 13:29:59;;;;;;;;;;;;;;;;;;5045811;28;20055;-56
2023/02/12 13:32:30;;;;;;;22.58;10.55;;;;;;;;;;5035552;28;19908;-55
2023/02/12 13:34:57;;;;;;;25.15;14.32;;;;;;;;;;5046483;28;20017;-56
2023/02/12 13:37:47;;;;;;;22.50;11.73;;;;;;;;;;5044686;28;20044;-55
2023/02/12 13:40:17;;;;;;;21.45;11.05;;;;;;;;;;5054268;28;20518;-53
2023/02/12 13:42:53;;;;;;;20.60;10.85;;;;;;;;;;5053993;28;20148;-54
2023/02/12 13:45:19;;;;;;;19.98;10.43;;;;;;;;;;5035443;28;20158;-53
2023/02/12 13:47:49;;;;;;;19.42;10.75;;;;;;;;;;5053804;28;20159;-57
2023/02/12 13:50:34;;;;;;;20.75;11.07;;;;;;;;;;5052227;28;20633;-55
2023/02/12 13:53:00;;;;;;;20.90;10.95;;;;;;;;;;5034879;28;20028;-54
2023/02/12 13:55:29;;;;;;;20.98;11.40;;;;;;;;;;5052587;28;20449;-59
2023/02/12 13:58:13;;;;;;;21.95;11.43;;;;;;;;;;5052937;28;20032;-55
2023/02/12 14:00:51;;;;;;;20.08;11.23;;;;;;;;;;5052588;28;20074;-56
2023/02/12 14:03:23;;;;;;;27.17;12.48;;;;;;;;;;5052073;28;20100;-57
2023/02/12 14:06:06;;;;;;;22.23;11.90;;;;;;;;;;5054541;28;20017;-53
2023/02/12 14:08:37;;;;;;;23.58;12.30;;;;;;;;;;5064107;28;20046;-59
2023/02/12 14:11:11;;;;;;;21.85;12.07;;;;;;;;;;5063130;28;20036;-56
2023/02/12 14:13:46;;;;;;;22.23;12.45;;;;;;;;;;5054824;28;20068;-56
2023/02/12 14:16:38;;;;;;;20.67;11.40;;;;;;;;;;5054515;28;20496;-55
2023/02/12 14:19:23;;;;;;;20.42;11.63;;;;;;;;;;5050125;28;20104;-56
2023/02/12 14:21:49;;;;;;;19.20;11.20;;;;;;;;;;5053805;28;20098;-57
2023/02/12 14:24:35;;;;;;;20.27;10.75;;;;;;;;;;5034375;28;20183;-56
2023/02/12 14:27:02;;;;;;;20.52;10.70;;;;;;;;;;5034985;28;20028;-55
2023/02/12 14:29:28;;;;;;;19.67;12.05;;;;;;;;;;5052634;28;20025;-55
2023/02/12 14:31:55;;;;;;;21.33;12.02;;;;;;;;;;5034569;28;20480;-53
2023/02/12 14:34:21;;;;;;;22.40;13.60;;;;;;;;;;5052099;28;20029;-57
2023/02/12 14:36:48;;;;;;;22.38;12.05;;;;;;;;;;5052848;28;20031;-53
2023/02/12 14:39:23;;;;;;;20.17;11.98;;;;;;;;;;5052156;28;20404;-56